Logan, Minnesota
Current Conditions -  °F | °C
As of 9:14 AM on Monday 24 Nov 2014 (Local Time) from KAIT Reporting Station
Overcast Overcast  
Wind Chill:   Ceiling: 1400
Heat Index: 21°   Visibility: 10mi
Dew Point: 16°   Wind: 12mph
Humidity: 80%   Direction: 300°WNW
Pressure: 29.41"   Gusts: 18mph
Location:  46.7281°N, 93.6101°W
Report Text: KAIT 241514Z AUTO 30010G16KT 10SM OVC014 M06/M09 A2941 RMK AO2
Loading
Personal Weather Stations






























Interactive Weather Map New forecast layout! Learn more

10-Day Weather Forecast

Advertisements
Track Severe Weather on mobile